Time;durP1;ratioP1;P1;durP2;ratioP2;P2;SDS_P1;SDS_P2;PMS_P1;PMS_P2;Temp;Humidity;BMP_temperature;BMP_pressure;BME280_temperature;BME280_humidity;BME280_pressure;Samples;Min_cycle;Max_cycle;Signal;HPM_P1;HPM_P2
2023/10/07 00:00:54;;;;;;;11.73;6.20;;;;;;;20.90;67.99;99793.94;5096687;28;20324;-87
2023/10/07 00:03:21;;;;;;;10.87;5.47;;;;;;;20.90;68.18;99795.75;5115077;28;20313;-87
2023/10/07 00:05:50;;;;;;;11.17;6.43;;;;;;;20.88;67.92;99795.91;5096702;28;20191;-86
2023/10/07 00:08:19;;;;;;;11.63;5.20;;;;;;;20.87;67.85;99802.19;5114687;28;20183;-86
2023/10/07 00:10:48;;;;;;;12.10;5.70;;;;;;;20.84;67.97;99797.97;5091798;28;20196;-86
2023/10/07 00:13:20;;;;;;;11.93;6.20;;;;;;;20.81;68.12;99808.03;5087034;28;20551;-87
2023/10/07 00:15:49;;;;;;;11.50;5.80;;;;;;;20.75;68.25;99796.06;5097230;28;20168;-86
2023/10/07 00:18:18;;;;;;;13.87;6.33;;;;;;;20.76;68.40;99795.09;5114504;28;20198;-86
2023/10/07 00:20:51;;;;;;;15.17;5.53;;;;;;;20.74;68.38;99798.88;5114315;28;20605;-87
2023/10/07 00:23:24;;;;;;;13.97;6.83;;;;;;;20.66;68.84;99804.84;5114507;28;20175;-86
2023/10/07 00:25:53;;;;;;;12.63;6.37;;;;;;;20.67;68.69;99803.03;5114395;28;20616;-86
2023/10/07 00:28:38;;;;;;;9.73;5.27;;;;;;;20.65;68.79;99804.97;5076402;28;20597;-87
2023/10/07 00:31:22;;;;;;;11.63;5.77;;;;;;;20.57;68.71;99802.94;5076576;28;20196;-87
2023/10/07 00:36:21;;;;;;;10.37;5.67;;;;;;;20.60;68.51;99810.66;5112412;28;20270;-86
2023/10/07 00:38:48;;;;;;;7.50;4.40;;;;;;;20.59;68.17;99800.16;5114424;28;20188;-86
2023/10/07 00:41:18;;;;;;;14.03;4.87;;;;;;;20.54;68.03;99799.69;5113774;28;20548;-86
2023/10/07 00:43:44;;;;;;;10.80;4.73;;;;;;;20.57;67.44;99800.25;5114123;28;20172;-86
2023/10/07 00:48:51;;;;;;;12.30;5.00;;;;;;;20.39;68.13;99804.44;5113934;28;20251;-86
2023/10/07 00:51:24;;;;;;;14.80;5.57;;;;;;;20.37;68.09;99809.06;5096829;28;20277;-87
2023/10/07 00:54:07;;;;;;;10.13;5.33;;;;;;;20.44;67.97;99812.09;5096798;28;20259;-86
2023/10/07 00:56:36;;;;;;;17.93;5.07;;;;;;;20.40;68.21;99807.97;5095679;28;20577;-86
2023/10/07 00:59:07;;;;;;;14.63;5.50;;;;;;;20.39;68.14;99803.63;5095605;28;20258;-86
2023/10/07 01:01:36;;;;;;;9.10;4.30;;;;;;;20.39;68.15;99812.44;5114406;28;20588;-86
2023/10/07 01:04:06;;;;;;;13.47;5.13;;;;;;;20.35;67.97;99805.69;5096239;28;20336;-87
2023/10/07 01:06:32;;;;;;;9.77;4.53;;;;;;;20.29;68.02;99800.00;5113912;28;20191;-86
2023/10/07 01:09:22;;;;;;;10.90;4.93;;;;;;;20.25;68.19;99806.56;5096064;28;20538;-86
2023/10/07 01:11:59;;;;;;;9.73;5.20;;;;;;;20.17;68.02;99799.16;5086347;28;20203;-86
2023/10/07 01:14:28;;;;;;;14.47;4.97;;;;;;;20.12;67.81;99791.56;5112521;28;20536;-86
2023/10/07 01:16:54;;;;;;;8.47;4.93;;;;;;;20.07;67.80;99791.06;5113430;28;20179;-86
2023/10/07 01:22:09;;;;;;;13.93;5.50;;;;;;;19.96;67.62;99796.44;5113312;28;20178;-86
2023/10/07 01:29:42;;;;;;;11.17;5.73;;;;;;;19.94;66.78;99805.50;5113179;28;20203;-86
2023/10/07 01:32:15;;;;;;;10.33;5.50;;;;;;;19.87;66.86;99801.63;5091432;28;20305;-86
2023/10/07 01:34:50;;;;;;;11.63;5.40;;;;;;;19.82;66.63;99790.50;5093622;28;20581;-86
2023/10/07 01:37:20;;;;;;;9.97;5.27;;;;;;;19.80;66.65;99801.28;5092253;28;20241;-87
2023/10/07 01:39:46;;;;;;;8.57;4.90;;;;;;;19.76;66.49;99799.81;5091894;28;20180;-87
2023/10/07 01:42:15;;;;;;;10.00;5.23;;;;;;;19.71;66.54;99801.16;5082576;28;20514;-86
2023/10/07 01:44:42;;;;;;;12.57;5.80;;;;;;;19.61;66.79;99801.91;5072126;28;20565;-86
2023/10/07 01:47:23;;;;;;;11.47;5.83;;;;;;;19.56;66.98;99800.56;5076098;28;20172;-87
2023/10/07 01:49:53;;;;;;;15.13;5.20;;;;;;;19.53;66.69;99798.16;5092968;28;20161;-86
2023/10/07 01:52:21;;;;;;;9.90;4.40;;;;;;;19.47;66.94;99799.47;5093409;28;20184;-86
2023/10/07 01:54:48;;;;;;;11.33;4.93;;;;;;;19.41;66.86;99788.50;5092686;28;20267;-86
2023/10/07 01:57:15;;;;;;;11.97;5.33;;;;;;;19.40;67.09;99792.09;5092819;28;20181;-86
2023/10/07 01:59:41;;;;;;;9.23;4.53;;;;;;;19.38;67.50;99797.56;5092837;28;20169;-87
2023/10/07 02:02:06;;;;;;;8.47;4.83;;;;;;;19.35;67.29;99803.06;5092003;28;20219;-86
2023/10/07 02:04:33;;;;;;;11.63;5.17;;;;;;;19.27;67.18;99797.50;5092772;28;20617;-86
2023/10/07 02:06:59;;;;;;;8.33;4.23;;;;;;;19.22;67.49;99794.34;5092708;28;20198;-87
2023/10/07 02:09:26;;;;;;;11.50;5.03;;;;;;;19.17;67.37;99795.69;5096336;28;20180;-86
2023/10/07 02:11:58;;;;;;;10.13;5.27;;;;;;;19.12;67.32;99792.53;5095479;28;20203;-86
2023/10/07 02:14:28;;;;;;;9.93;4.83;;;;;;;19.11;67.33;99790.81;5096829;28;20202;-86
2023/10/07 02:16:57;;;;;;;10.77;4.93;;;;;;;19.12;67.29;99789.88;5096321;28;20188;-87
2023/10/07 02:19:31;;;;;;;8.63;4.17;;;;;;;19.09;67.35;99785.63;5096401;28;20179;-86
2023/10/07 02:22:07;;;;;;;10.53;4.70;;;;;;;19.04;67.26;99787.81;5096698;28;20183;-87
2023/10/07 02:24:41;;;;;;;15.40;4.83;;;;;;;18.97;67.20;99790.06;5076646;28;20205;-87
2023/10/07 02:27:18;;;;;;;14.80;4.90;;;;;;;18.93;67.32;99798.41;5078374;28;20179;-86
2023/10/07 02:29:44;;;;;;;11.10;5.30;;;;;;;18.91;67.20;99787.06;5095867;28;20168;-86
2023/10/07 02:32:19;;;;;;;9.03;4.43;;;;;;;18.86;67.79;99790.06;5095000;28;20240;-86
2023/10/07 02:34:51;;;;;;;10.80;4.93;;;;;;;18.82;68.17;99795.72;5096315;28;20172;-87
2023/10/07 02:37:18;;;;;;;13.00;4.93;;;;;;;18.76;68.17;99794.34;5095489;28;20186;-86
2023/10/07 02:39:48;;;;;;;8.40;5.10;;;;;;;18.74;68.17;99790.13;5096028;28;20632;-86
2023/10/07 02:42:21;;;;;;;8.47;4.57;;;;;;;18.73;68.32;99793.78;5096022;28;20195;-86
2023/10/07 02:47:50;;;;;;;10.70;4.37;;;;;;;18.66;68.09;99790.72;5096518;28;20196;-86
2023/10/07 02:50:17;;;;;;;10.03;5.43;;;;;;;18.64;67.59;99787.34;5095233;28;20570;-86
2023/10/07 02:52:46;;;;;;;12.67;4.57;;;;;;;18.63;67.90;99793.59;5095818;28;20173;-86
2023/10/07 02:57:46;;;;;;;12.63;5.03;;;;;;;18.57;67.76;99788.75;5095824;28;20690;-86
2023/10/07 03:00:18;;;;;;;8.83;4.43;;;;;;;18.55;67.60;99788.03;5095841;28;20188;-87
2023/10/07 03:02:50;;;;;;;9.77;4.50;;;;;;;18.52;67.93;99785.59;5088859;28;20631;-87
2023/10/07 03:05:27;;;;;;;7.70;4.23;;;;;;;18.50;68.01;99784.84;5074317;28;20531;-87
2023/10/07 03:08:02;;;;;;;8.27;4.53;;;;;;;18.48;68.06;99775.31;5074318;28;20659;-87
2023/10/07 03:10:54;;;;;;;8.50;4.77;;;;;;;18.50;68.09;99781.38;5075246;28;20201;-87
2023/10/07 03:13:25;;;;;;;10.40;5.60;;;;;;;18.44;68.14;99785.28;5075452;28;20173;-87
2023/10/07 03:18:38;;;;;;;10.50;4.90;;;;;;;18.35;68.20;99789.47;5094584;28;20174;-87
2023/10/07 03:21:10;;;;;;;13.60;5.73;;;;;;;18.36;67.89;99785.03;5094091;28;20172;-87
2023/10/07 03:23:46;;;;;;;10.23;4.87;;;;;;;18.35;67.59;99793.94;5094573;28;20263;-87
2023/10/07 03:26:22;;;;;;;13.23;4.70;;;;;;;18.33;67.72;99793.19;5094072;28;20190;-87
2023/10/07 03:31:20;;;;;;;11.70;4.70;;;;;;;18.30;67.97;99786.31;5094962;28;20210;-87
2023/10/07 03:33:50;;;;;;;15.30;5.13;;;;;;;18.28;67.56;99787.38;5097228;28;20237;-87
2023/10/07 03:39:16;;;;;;;11.90;5.47;;;;;;;18.20;67.92;99795.06;5115319;28;20516;-87
2023/10/07 03:41:55;;;;;;;10.57;5.93;;;;;;;18.23;67.93;99789.53;5097392;28;20196;-87
2023/10/07 03:44:22;;;;;;;10.37;4.83;;;;;;;18.23;68.10;99789.53;5097380;28;20184;-87
2023/10/07 03:46:57;;;;;;;10.43;5.33;;;;;;;18.21;67.86;99794.13;5096874;28;20176;-87
2023/10/07 03:49:23;;;;;;;11.80;5.80;;;;;;;18.16;67.82;99802.38;5097859;28;20215;-87
2023/10/07 03:52:12;;;;;;;10.73;5.47;;;;;;;18.13;68.08;99802.59;5097362;28;20262;-87
2023/10/07 03:54:42;;;;;;;13.10;5.00;;;;;;;18.10;68.19;99802.88;5097501;28;20211;-87
2023/10/07 03:57:10;;;;;;;11.90;5.70;;;;;;;18.09;68.06;99810.91;5115132;28;20553;-87
2023/10/07 03:59:37;;;;;;;10.13;5.37;;;;;;;18.03;68.40;99806.06;5115674;28;20179;-87
2023/10/07 04:04:58;;;;;;;17.07;6.43;;;;;;;17.94;68.68;99812.03;5114829;28;20258;-86
2023/10/07 04:07:27;;;;;;;9.87;5.43;;;;;;;17.94;68.66;99822.63;5115036;28;20242;-87
2023/10/07 04:09:54;;;;;;;10.10;5.40;;;;;;;17.92;68.62;99817.47;5096196;28;20183;-87
2023/10/07 04:12:22;;;;;;;12.63;4.73;;;;;;;17.90;69.21;99821.19;5114685;28;20681;-87
2023/10/07 04:14:55;;;;;;;11.60;5.73;;;;;;;17.88;69.07;99817.75;5097261;28;20176;-87
2023/10/07 04:17:23;;;;;;;11.87;5.43;;;;;;;17.90;68.96;99827.31;5094500;28;20156;-87
2023/10/07 04:19:53;;;;;;;11.63;5.53;;;;;;;17.90;68.70;99827.31;5105763;28;20194;-87
2023/10/07 04:22:18;;;;;;;9.67;4.67;;;;;;;17.91;69.02;99825.50;5114451;28;20209;-87
2023/10/07 04:24:45;;;;;;;14.70;5.53;;;;;;;17.88;68.78;99828.38;5114866;28;20180;-87
2023/10/07 04:27:19;;;;;;;9.47;4.97;;;;;;;17.88;69.04;99844.28;5114022;28;20191;-87
2023/10/07 04:29:47;;;;;;;9.87;5.00;;;;;;;17.89;68.84;99832.72;5114450;28;20224;-87
2023/10/07 04:32:20;;;;;;;9.67;5.20;;;;;;;17.87;68.82;99837.31;5113891;28;20219;-87
2023/10/07 04:35:06;;;;;;;10.70;5.30;;;;;;;17.90;68.89;99837.09;5106613;28;20188;-87
2023/10/07 04:37:52;;;;;;;9.73;4.87;;;;;;;17.93;68.99;99834.19;5094109;28;20175;-87
2023/10/07 04:45:49;;;;;;;16.13;5.53;;;;;;;17.92;68.88;99835.16;5051899;28;20192;-87
2023/10/07 04:48:40;;;;;;;10.47;4.73;;;;;;;17.93;68.90;99827.09;5085904;28;20735;-87
2023/10/07 04:51:12;;;;;;;11.17;5.13;;;;;;;17.93;68.71;99827.09;5093756;28;20197;-87
2023/10/07 04:53:38;;;;;;;11.50;5.40;;;;;;;17.95;68.94;99834.97;5098043;28;20236;-87
2023/10/07 04:56:06;;;;;;;10.23;5.17;;;;;;;17.93;68.96;99842.16;5113691;28;20203;-87
2023/10/07 04:58:34;;;;;;;11.03;5.07;;;;;;;17.95;69.09;99840.25;5113702;28;20279;-87
2023/10/07 05:01:22;;;;;;;11.33;4.37;;;;;;;17.99;68.92;99839.06;5113797;28;20176;-87
2023/10/07 05:03:55;;;;;;;9.87;5.07;;;;;;;18.00;69.14;99835.47;5113723;28;20164;-87
2023/10/07 05:06:25;;;;;;;11.83;5.40;;;;;;;18.03;69.40;99840.56;5114068;28;20188;-88
2023/10/07 05:08:52;;;;;;;9.40;4.67;;;;;;;18.08;69.32;99846.38;5113677;28;20617;-87
2023/10/07 05:11:18;;;;;;;9.60;4.73;;;;;;;18.09;69.41;99851.56;5113291;28;20211;-87
2023/10/07 05:13:48;;;;;;;10.40;4.63;;;;;;;18.04;69.88;99861.66;5114119;28;20180;-87
2023/10/07 05:16:14;;;;;;;11.47;5.00;;;;;;;18.03;70.21;99853.81;5113425;28;20176;-87
2023/10/07 05:18:40;;;;;;;11.37;5.30;;;;;;;18.07;70.42;99852.63;5113562;28;20519;-87
2023/10/07 05:21:07;;;;;;;12.87;5.20;;;;;;;18.14;70.67;99852.06;5095899;28;20561;-87
2023/10/07 05:23:34;;;;;;;12.73;5.50;;;;;;;18.29;70.75;99844.84;5113240;28;20186;-87
2023/10/07 05:26:08;;;;;;;11.93;5.87;;;;;;;18.32;70.34;99847.22;5113526;28;20207;-87
2023/10/07 05:28:35;;;;;;;12.57;6.53;;;;;;;18.34;70.33;99855.97;5107654;28;20179;-87
2023/10/07 05:31:03;;;;;;;11.27;6.00;;;;;;;18.38;70.32;99845.00;5079190;28;20208;-87
2023/10/07 05:33:35;;;;;;;13.53;6.77;;;;;;;18.48;70.10;99855.81;5095288;28;20296;-87
2023/10/07 05:36:14;;;;;;;13.37;6.53;;;;;;;18.63;69.89;99862.63;5113736;28;20156;-87
2023/10/07 05:38:44;;;;;;;16.57;6.30;;;;;;;18.91;69.52;99859.63;5113149;28;20208;-87
2023/10/07 05:41:15;;;;;;;12.80;6.03;;;;;;;19.33;68.66;99870.63;5096610;28;20256;-87
2023/10/07 05:43:44;;;;;;;11.13;5.60;;;;;;;19.77;67.88;99860.06;5099363;28;20187;-87
2023/10/07 05:46:11;;;;;;;12.00;5.97;;;;;;;20.13;66.21;99856.28;5099309;28;20236;-87
2023/10/07 05:48:38;;;;;;;13.83;5.80;;;;;;;20.49;65.43;99858.66;5117452;28;20183;-86
2023/10/07 05:51:08;;;;;;;12.47;5.77;;;;;;;20.95;63.98;99861.03;5100479;28;20202;-86
2023/10/07 05:53:37;;;;;;;11.40;5.30;;;;;;;21.46;62.92;99865.63;5099429;28;20256;-86
2023/10/07 05:56:05;;;;;;;14.27;5.80;;;;;;;21.82;61.55;99860.63;5098874;28;20190;-86
2023/10/07 05:58:33;;;;;;;13.10;6.07;;;;;;;22.17;61.12;99857.53;5099284;28;20244;-87
2023/10/07 06:01:00;;;;;;;10.63;5.67;;;;;;;22.83;59.89;99855.97;5118028;28;20245;-86
2023/10/07 06:03:28;;;;;;;12.57;4.70;;;;;;;23.63;58.61;99856.44;5107711;28;20184;-86
2023/10/07 06:05:58;;;;;;;12.37;5.40;;;;;;;24.33;56.97;99860.38;5096977;28;20169;-87
2023/10/07 06:08:28;;;;;;;8.37;4.87;;;;;;;24.98;54.72;99857.38;5095081;28;20190;-85
2023/10/07 06:10:56;;;;;;;9.20;4.67;;;;;;;25.73;52.31;99855.94;5117258;28;20655;-86
2023/10/07 06:13:26;;;;;;;10.20;4.27;;;;;;;26.50;50.80;99847.69;5098426;28;20180;-86
2023/10/07 06:15:58;;;;;;;6.00;3.40;;;;;;;27.23;47.13;99848.63;5116962;28;20179;-85
2023/10/07 06:18:24;;;;;;;8.03;4.03;;;;;;;27.95;45.94;99846.81;5116652;28;20594;-86
2023/10/07 06:20:51;;;;;;;7.67;3.77;;;;;;;28.76;44.62;99854.53;5117160;28;20328;-86
2023/10/07 06:23:19;;;;;;;9.37;3.43;;;;;;;29.38;42.48;99847.97;5098841;28;20268;-86
2023/10/07 06:25:50;;;;;;;8.30;3.87;;;;;;;30.02;40.99;99842.91;5098635;28;20584;-86
2023/10/07 06:31:13;;;;;;;7.83;3.97;;;;;;;30.88;38.36;99846.44;5117230;28;20191;-85
2023/10/07 06:33:42;;;;;;;8.17;4.00;;;;;;;31.34;37.85;99838.75;5116687;28;20645;-85
2023/10/07 06:36:12;;;;;;;7.00;3.30;;;;;;;31.52;36.59;99846.44;5098263;28;20179;-86
2023/10/07 06:38:52;;;;;;;5.45;2.75;;;;;;;31.72;37.13;99846.53;5098631;28;20195;-86
2023/10/07 06:41:18;;;;;;;10.02;3.50;;;;;;;31.74;36.54;99863.44;5116311;28;20183;-86
2023/10/07 06:43:50;;;;;;;8.75;3.75;;;;;;;31.76;36.92;99861.41;5116450;28;20175;-86
2023/10/07 06:46:20;;;;;;;10.15;3.90;;;;;;;31.60;35.67;99865.25;5116856;28;20163;-86
2023/10/07 06:48:48;;;;;;;7.18;3.25;;;;;;;31.47;35.98;99865.16;5098740;28;20171;-87
2023/10/07 06:51:16;;;;;;;7.55;2.80;;;;;;;31.30;36.19;99863.72;5116228;28;20264;-87
2023/10/07 06:53:43;;;;;;;10.50;3.85;;;;;;;31.45;36.84;99864.47;5098185;28;20183;-87
2023/10/07 06:56:20;;;;;;;6.60;3.22;;;;;;;31.48;36.84;99861.41;5116238;28;20168;-87
2023/10/07 06:58:54;;;;;;;6.68;3.33;;;;;;;31.57;38.01;99849.38;5116131;28;20628;-88
2023/10/07 07:02:11;;;;;;;8.35;3.83;;;;;;;31.65;37.21;99848.38;5115947;28;20271;-88
2023/10/07 07:04:11;;;;;;;6.55;3.00;;;;;;;31.65;36.71;99846.53;5108264;28;20282;-88
2023/10/07 07:06:57;;;;;;;7.25;3.25;;;;;;;31.67;36.68;99849.88;5115879;28;20222;-88
2023/10/07 07:12:16;;;;;;;7.43;3.30;;;;;;;31.19;37.53;99846.13;5115821;28;20244;-88
2023/10/07 07:14:51;;;;;;;8.82;3.30;;;;;;;31.13;36.85;99840.66;5115865;28;20184;-89
2023/10/07 07:22:46;;;;;;;7.25;3.10;;;;;;;30.71;38.04;99830.66;5115730;28;20160;-88
2023/10/07 07:25:39;;;;;;;7.82;3.63;;;;;;;30.61;38.23;99830.94;5115260;28;20179;-88
2023/10/07 07:28:05;;;;;;;9.35;3.22;;;;;;;30.31;38.53;99829.34;5115389;28;20195;-88
2023/10/07 07:30:30;;;;;;;7.88;3.28;;;;;;;30.11;39.37;99823.69;5097997;28;20199;-88
2023/10/07 07:33:08;;;;;;;7.65;3.08;;;;;;;29.89;39.13;99830.06;5115323;28;20587;-88
2023/10/07 07:35:43;;;;;;;6.30;3.28;;;;;;;29.51;39.48;99839.22;5097731;28;20189;-88
2023/10/07 07:41:09;;;;;;;7.45;3.20;;;;;;;29.32;40.35;99827.13;5115396;28;20162;-88
2023/10/07 07:43:39;;;;;;;8.90;3.55;;;;;;;29.01;40.22;99829.06;5115228;28;20179;-88
2023/10/07 07:48:48;;;;;;;8.85;3.65;;;;;;;28.69;41.43;99830.16;5115459;28;20166;-88
2023/10/07 07:51:20;;;;;;;10.98;3.83;;;;;;;28.61;42.56;99817.56;5114958;28;20194;-87
2023/10/07 07:53:47;;;;;;;9.00;3.80;;;;;;;28.59;41.74;99824.09;5115436;28;20517;-87
2023/10/07 07:56:13;;;;;;;8.95;3.38;;;;;;;28.53;41.83;99831.06;5114929;28;20171;-88
2023/10/07 07:58:49;;;;;;;7.03;3.38;;;;;;;28.26;42.19;99830.69;5115607;28;20164;-88
2023/10/07 08:01:23;;;;;;;9.82;3.20;;;;;;;28.03;41.85;99833.34;5115315;28;20151;-87
2023/10/07 08:03:50;;;;;;;12.25;3.53;;;;;;;27.89;42.00;99831.34;5103286;28;20177;-87
2023/10/07 08:06:20;;;;;;;7.53;3.17;;;;;;;27.78;42.34;99837.94;5093813;28;20165;-87
2023/10/07 08:08:49;;;;;;;6.82;2.85;;;;;;;27.84;42.98;99837.25;5105583;28;20248;-87
2023/10/07 08:11:17;;;;;;;5.97;3.05;;;;;;;27.69;42.16;99824.69;5114390;28;20207;-87
2023/10/07 08:13:45;;;;;;;7.13;2.22;;;;;;;27.52;42.36;99823.88;5114733;28;20696;-87
2023/10/07 08:16:16;;;;;;;7.47;3.25;;;;;;;27.42;43.86;99826.75;5097247;28;20583;-87
2023/10/07 08:18:41;;;;;;;6.43;2.72;;;;;;;27.58;43.17;99817.81;5114947;28;20225;-87
2023/10/07 08:21:07;;;;;;;6.45;2.88;;;;;;;27.69;42.48;99827.38;5114887;28;20220;-87
2023/10/07 08:23:51;;;;;;;5.22;2.42;;;;;;;27.74;42.63;99819.59;5096173;28;20645;-87
2023/10/07 08:26:22;;;;;;;6.47;2.75;;;;;;;27.74;43.18;99822.31;5114299;28;20172;-87
2023/10/07 08:31:37;;;;;;;5.55;2.47;;;;;;;27.89;42.30;99812.47;5114783;28;20225;-87
2023/10/07 08:36:36;;;;;;;5.50;2.78;;;;;;;27.79;42.68;99803.75;5093852;28;20259;-87
2023/10/07 08:39:09;;;;;;;5.32;2.45;;;;;;;27.93;42.19;99811.13;5094143;28;20164;-86
2023/10/07 08:41:35;;;;;;;7.95;2.50;;;;;;;27.93;41.16;99811.13;5087288;28;20200;-87
2023/10/07 08:44:16;;;;;;;5.57;3.10;;;;;;;27.90;42.07;99806.94;5072845;28;20204;-87
2023/10/07 08:46:49;;;;;;;6.63;2.40;;;;;;;28.14;40.90;99797.91;5091659;28;20255;-87
2023/10/07 08:49:26;;;;;;;6.53;2.75;;;;;;;28.24;41.25;99803.94;5094259;28;20566;-88
2023/10/07 08:51:53;;;;;;;5.38;2.10;;;;;;;28.29;40.80;99798.00;5092334;28;20202;-87
2023/10/07 08:54:31;;;;;;;5.38;2.38;;;;;;;28.41;40.22;99794.72;5092965;28;20180;-88
2023/10/07 08:57:06;;;;;;;6.80;2.60;;;;;;;28.53;39.62;99793.28;5092694;28;20199;-87
2023/10/07 08:59:31;;;;;;;6.10;2.05;;;;;;;28.54;39.44;99792.25;5093302;28;20167;-88
2023/10/07 09:02:36;;;;;;;6.72;2.88;;;;;;;28.60;40.85;99790.69;5094099;28;20186;-88
2023/10/07 09:04:51;;;;;;;7.57;3.17;;;;;;;28.55;39.82;99785.00;5092362;28;20203;-87
2023/10/07 09:07:20;;;;;;;6.30;2.97;;;;;;;28.64;41.21;99781.28;5088801;28;20264;-87
2023/10/07 09:09:48;;;;;;;6.80;3.15;;;;;;;28.86;40.51;99782.25;5072073;28;20649;-87
2023/10/07 09:14:52;;;;;;;6.13;2.70;;;;;;;29.11;38.57;99776.44;5093306;28;20180;-88
2023/10/07 09:17:21;;;;;;;5.75;2.80;;;;;;;28.92;38.71;99777.00;5079163;28;20172;-88
2023/10/07 09:19:55;;;;;;;6.80;2.92;;;;;;;28.72;39.25;99770.41;5071843;28;20180;-89
2023/10/07 09:22:25;;;;;;;5.72;2.70;;;;;;;28.85;39.24;99765.22;5073115;28;20164;-88
2023/10/07 09:25:08;;;;;;;5.40;2.42;;;;;;;29.08;40.35;99765.19;5074203;28;20191;-88
2023/10/07 09:27:38;;;;;;;6.53;2.65;;;;;;;29.12;38.95;99755.69;5094074;28;20148;-88
2023/10/07 09:30:35;;;;;;;8.80;3.17;;;;;;;29.17;37.72;99748.72;5093062;28;20200;-88
2023/10/07 09:32:55;;;;;;;5.65;2.92;;;;;;;29.02;38.86;99745.16;5095231;28;20192;-88
2023/10/07 09:35:25;;;;;;;6.13;2.65;;;;;;;28.91;37.98;99747.47;5095628;28;20546;-88
2023/10/07 09:37:59;;;;;;;8.00;2.38;;;;;;;28.84;38.79;99750.06;5093687;28;20175;-90
2023/10/07 09:46:10;;;;;;;6.57;2.47;;;;;;;28.51;35.39;99735.97;5104508;28;20628;-89
2023/10/07 09:48:41;;;;;;;6.53;2.55;;;;;;;28.72;35.07;99739.91;5095209;28;20176;-89
2023/10/07 09:51:17;;;;;;;8.50;2.97;;;;;;;28.71;37.22;99740.91;5113595;28;20188;-89
2023/10/07 09:54:16;;;;;;;6.95;2.88;;;;;;;28.69;35.87;99735.69;5113400;28;20228;-89
2023/10/07 09:57:05;;;;;;;7.93;2.50;;;;;;;29.04;35.93;99723.38;5113543;28;20156;-89
2023/10/07 09:59:59;;;;;;;5.90;2.70;;;;;;;29.32;36.24;99715.53;5113633;28;20179;-88
2023/10/07 10:02:42;;;;;;;6.03;2.50;;;;;;;29.53;34.90;99711.06;5113199;28;20160;-89
2023/10/07 10:05:26;;;;;;;5.68;2.08;;;;;;;29.60;34.36;99705.72;5112694;28;20180;-89
2023/10/07 10:08:19;;;;;;;8.27;2.33;;;;;;;29.73;34.76;99701.31;5113025;28;20176;-89
2023/10/07 10:10:49;;;;;;;6.28;2.67;;;;;;;29.43;34.83;99694.28;5094622;28;20204;-90
2023/10/07 10:16:16;;;;;;;6.25;2.80;;;;;;;30.05;32.49;99683.84;5113187;28;20170;-89
2023/10/07 10:18:45;;;;;;;4.97;2.10;;;;;;;29.83;33.21;99679.44;5112892;28;20172;-89
2023/10/07 10:21:12;;;;;;;7.13;2.30;;;;;;;30.14;33.63;99679.97;5094864;28;20175;-90
2023/10/07 10:23:40;;;;;;;3.80;2.08;;;;;;;30.31;32.42;99670.59;5112900;28;20164;-90
2023/10/07 10:26:24;;;;;;;5.85;2.33;;;;;;;30.50;33.85;99666.41;5112831;28;20254;-90
2023/10/07 10:28:59;;;;;;;6.63;2.63;;;;;;;30.57;32.68;99656.47;5096692;28;20171;-90
2023/10/07 10:31:32;;;;;;;9.80;3.00;;;;;;;30.45;32.33;99649.94;5116706;28;20808;-89
2023/10/07 10:34:05;;;;;;;5.93;2.50;;;;;;;30.21;33.17;99647.59;5116494;28;20273;-90
2023/10/07 10:36:32;;;;;;;5.43;2.45;;;;;;;30.36;33.76;99638.41;5116816;28;20230;-90
2023/10/07 10:39:00;;;;;;;7.72;2.30;;;;;;;30.52;32.87;99637.28;5116554;28;20168;-89
2023/10/07 10:41:29;;;;;;;7.07;2.95;;;;;;;30.63;32.80;99636.75;5110905;28;20234;-90
2023/10/07 10:44:16;;;;;;;6.55;2.47;;;;;;;30.60;31.89;99628.19;5078288;28;20259;-90
2023/10/07 10:46:47;;;;;;;8.70;2.58;;;;;;;30.54;32.31;99627.09;5096514;28;20290;-90
2023/10/07 10:49:16;;;;;;;5.18;2.40;;;;;;;30.58;33.00;99622.13;5095918;28;20176;-90
2023/10/07 10:51:48;;;;;;;6.10;2.40;;;;;;;30.59;32.09;99621.94;5095859;28;20619;-90
2023/10/07 10:54:16;;;;;;;4.63;2.05;;;;;;;30.35;30.24;99614.19;5112361;28;20196;-89
2023/10/07 10:56:55;;;;;;;9.35;3.13;;;;;;;30.13;33.44;99616.13;5116225;28;20195;-91
2023/10/07 10:59:22;;;;;;;5.57;2.30;;;;;;;30.37;32.11;99602.19;5116279;28;20176;-91
2023/10/07 11:01:50;;;;;;;9.45;2.55;;;;;;;30.40;31.76;99596.38;5116145;28;20236;-91
2023/10/07 11:04:19;;;;;;;5.40;2.78;;;;;;;30.25;31.89;99594.78;5098246;28;20180;-90
2023/10/07 11:06:50;;;;;;;6.85;2.38;;;;;;;30.59;32.23;99599.44;5098045;28;20701;-90
2023/10/07 11:09:25;;;;;;;10.10;3.25;;;;;;;30.75;31.25;99594.56;5116228;28;20160;-89
2023/10/07 11:11:55;;;;;;;9.07;2.72;;;;;;;30.69;32.12;99584.53;5097909;28;20295;-90
2023/10/07 11:14:23;;;;;;;6.25;2.25;;;;;;;30.67;31.51;99581.19;5097859;28;20164;-90
2023/10/07 11:16:51;;;;;;;7.20;3.13;;;;;;;30.51;31.01;99583.34;5116180;28;20258;-90
2023/10/07 11:19:18;;;;;;;6.93;2.63;;;;;;;30.73;32.00;99580.41;5097845;28;20184;-89
2023/10/07 11:21:45;;;;;;;5.40;2.47;;;;;;;31.05;31.74;99578.09;5115600;28;20180;-90
2023/10/07 11:24:30;;;;;;;6.28;2.67;;;;;;;31.08;31.08;99577.72;5116035;28;20183;-90
2023/10/07 11:26:59;;;;;;;5.95;2.35;;;;;;;31.12;31.08;99573.53;5115788;28;20180;-90
2023/10/07 11:29:30;;;;;;;6.53;2.63;;;;;;;31.43;30.60;99561.16;5115702;28;20617;-90
2023/10/07 11:32:03;;;;;;;6.97;2.67;;;;;;;31.66;30.16;99558.13;5097359;28;20523;-90
2023/10/07 11:34:43;;;;;;;5.53;2.50;;;;;;;31.86;30.19;99559.00;5115470;28;20223;-90
2023/10/07 11:37:14;;;;;;;7.35;2.55;;;;;;;31.61;30.44;99556.03;5115872;28;20198;-91
2023/10/07 11:39:44;;;;;;;6.40;2.67;;;;;;;31.50;30.61;99550.34;5114586;28;20231;-90
2023/10/07 11:42:21;;;;;;;5.30;2.33;;;;;;;31.52;30.58;99548.31;5115579;28;20156;-89
2023/10/07 11:44:54;;;;;;;6.95;2.78;;;;;;;31.52;30.17;99545.59;5115336;28;20548;-90
2023/10/07 11:47:20;;;;;;;5.25;2.90;;;;;;;31.37;31.11;99534.03;5114955;28;20248;-90
2023/10/07 11:49:47;;;;;;;6.65;2.88;;;;;;;31.70;30.39;99534.16;5115092;28;20175;-89
2023/10/07 11:52:19;;;;;;;6.53;2.70;;;;;;;32.00;30.56;99524.59;5115071;28;20200;-90
2023/10/07 11:54:46;;;;;;;6.63;3.42;;;;;;;32.09;30.74;99518.78;5097306;28;20624;-90
2023/10/07 11:57:13;;;;;;;6.85;2.78;;;;;;;32.31;30.20;99523.97;5114970;28;20204;-90
2023/10/07 11:59:42;;;;;;;10.10;2.92;;;;;;;32.31;30.37;99515.84;5097173;28;20172;-90
2023/10/07 12:02:10;;;;;;;5.75;3.13;;;;;;;32.19;29.55;99523.78;5114978;28;20172;-90
2023/10/07 12:04:38;;;;;;;8.10;2.85;;;;;;;31.66;30.78;99522.88;5114781;28;20176;-90
2023/10/07 12:07:07;;;;;;;9.00;2.95;;;;;;;31.74;30.58;99519.97;5114908;28;20621;-89
2023/10/07 12:09:35;;;;;;;8.02;2.95;;;;;;;31.63;30.31;99519.75;5096381;28;20284;-90
2023/10/07 12:12:02;;;;;;;5.93;2.78;;;;;;;31.75;30.58;99502.66;5114686;28;20207;-90
2023/10/07 12:14:31;;;;;;;9.50;3.95;;;;;;;32.08;29.36;99498.09;5114972;28;20183;-90
2023/10/07 12:16:58;;;;;;;9.55;2.90;;;;;;;31.63;30.40;99509.72;5096688;28;20191;-90
2023/10/07 12:19:25;;;;;;;6.90;2.55;;;;;;;31.34;30.78;99504.66;5096713;28;20605;-89
2023/10/07 12:21:52;;;;;;;6.30;2.95;;;;;;;31.63;30.46;99496.19;5114113;28;20244;-90
2023/10/07 12:24:19;;;;;;;9.25;3.05;;;;;;;31.90;30.04;99483.47;5114466;28;20694;-89
2023/10/07 12:26:51;;;;;;;5.78;2.72;;;;;;;32.09;30.18;99474.53;5114482;28;20209;-89
2023/10/07 12:29:18;;;;;;;7.82;2.85;;;;;;;32.15;29.69;99479.94;5096318;28;20285;-89
2023/10/07 12:31:45;;;;;;;6.35;2.97;;;;;;;32.15;31.37;99474.50;5096455;28;20551;-91
2023/10/07 12:34:17;;;;;;;10.23;2.70;;;;;;;31.42;31.02;99471.97;5114225;28;20693;-89
2023/10/07 12:36:44;;;;;;;5.82;2.80;;;;;;;31.41;30.94;99475.69;5114029;28;20200;-90
2023/10/07 12:39:11;;;;;;;7.30;2.60;;;;;;;31.40;31.23;99463.19;5114168;28;20187;-90
2023/10/07 12:41:41;;;;;;;6.38;2.65;;;;;;;31.58;31.25;99461.56;5114457;28;20172;-89
2023/10/07 12:44:08;;;;;;;10.05;2.63;;;;;;;31.78;30.65;99455.34;5096351;28;20180;-90
2023/10/07 12:46:38;;;;;;;6.03;2.80;;;;;;;32.01;29.30;99451.19;5114061;28;20629;-90
2023/10/07 12:49:13;;;;;;;5.82;2.83;;;;;;;31.90;29.64;99453.66;5096068;28;20191;-90
2023/10/07 12:51:45;;;;;;;6.32;2.88;;;;;;;31.86;30.12;99447.81;5113990;28;20256;-89
2023/10/07 12:54:11;;;;;;;5.68;2.80;;;;;;;32.03;30.41;99432.81;5113871;28;20671;-89
2023/10/07 12:56:42;;;;;;;5.40;2.58;;;;;;;32.25;29.24;99440.69;5113910;28;20245;-89